Terminal Aerodrome Forecast
Issued by NWS

Home | Current Version | Previous Version | Text Only | Print | Product List | Glossary Off
Versions: 1 2 3 4 5 6 7 8 9 10 11 12 13 14 15 16

852
FTUS42 KMHX 221721
TAFPGV
TAF
KPGV 221721Z 2218/2318 18006KT P6SM SCT050 BKN150
     FM230900 00000KT 3SM BR SCT050 BKN150
     FM231300 18005KT P6SM SCT050 BKN120
      AMD LTD TO CLD VIS AND WIND=

USA.gov is the U.S. government's official web portal to all federal, state and local government web resources and services.